createdAt,value
2018-08-16T00:01:49.296Z,29.26
2018-08-16T00:04:24.897Z,29.31
2018-08-16T00:07:00.595Z,29.36
2018-08-16T00:09:36.292Z,29.37
2018-08-16T00:12:12.079Z,29.37
2018-08-16T00:14:47.811Z,29.43
2018-08-16T00:17:21.506Z,29.45
2018-08-16T00:19:57.246Z,29.47
2018-08-16T00:22:32.842Z,29.47
2018-08-16T00:25:09.435Z,29.48
2018-08-16T00:27:45.187Z,29.49
2018-08-16T00:30:24.392Z,29.50
2018-08-16T00:33:00.187Z,29.51
2018-08-16T00:35:35.826Z,29.52
2018-08-16T00:38:12.512Z,29.52
2018-08-16T00:40:48.184Z,29.52
2018-08-16T00:43:24.087Z,29.52
2018-08-16T00:46:00.032Z,29.54
2018-08-16T00:48:35.800Z,29.53
2018-08-16T00:51:11.616Z,29.54
2018-08-16T00:53:45.347Z,29.52
2018-08-16T00:56:21.283Z,29.51
2018-08-16T00:58:57.204Z,29.52
2018-08-16T01:01:33.036Z,29.09
2018-08-16T01:04:08.840Z,29.03
2018-08-16T01:06:44.601Z,29.10
2018-08-16T01:09:20.213Z,29.15
2018-08-16T01:11:55.803Z,29.20
2018-08-16T01:14:31.242Z,29.24
2018-08-16T01:17:07.202Z,29.26
2018-08-16T01:19:43.105Z,29.27
2018-08-16T01:22:18.976Z,29.30
2018-08-16T01:24:54.399Z,29.30
2018-08-16T01:27:30.192Z,29.31
2018-08-16T01:30:06.162Z,29.32
2018-08-16T01:32:42.250Z,29.32
2018-08-16T01:35:18.185Z,29.33
2018-08-16T01:37:54.132Z,29.33
2018-08-16T01:40:30.440Z,29.34
2018-08-16T01:43:06.313Z,29.34
2018-08-16T01:45:42.190Z,29.34
2018-08-16T01:48:18.067Z,29.35
2018-08-16T01:50:53.838Z,29.33
2018-08-16T01:53:27.537Z,29.33
2018-08-16T01:56:04.353Z,29.33
2018-08-16T01:58:40.438Z,29.33
2018-08-16T02:01:14.340Z,29.33
2018-08-16T02:03:50.426Z,29.32
2018-08-16T02:06:26.271Z,29.32
2018-08-16T02:09:02.353Z,29.32
2018-08-16T02:11:38.183Z,29.32
2018-08-16T02:14:14.012Z,29.31
2018-08-16T02:16:50.605Z,29.32
2018-08-16T02:19:26.288Z,29.34
2018-08-16T02:22:02.185Z,29.36
2018-08-16T02:24:38.070Z,29.37
2018-08-16T02:27:13.760Z,29.39
2018-08-16T02:29:49.483Z,29.44
2018-08-16T02:32:25.121Z,29.46
2018-08-16T02:35:01.122Z,29.50
2018-08-16T02:37:36.884Z,29.53
2018-08-16T02:40:11.780Z,29.53
2018-08-16T02:42:47.659Z,29.55
2018-08-16T02:45:23.489Z,29.56
2018-08-16T02:47:59.288Z,29.57
2018-08-16T02:50:35.925Z,29.53
2018-08-16T02:53:12.065Z,29.58
2018-08-16T02:55:47.874Z,29.58
2018-08-16T02:58:23.696Z,29.56
2018-08-16T03:01:00.194Z,29.58
2018-08-16T03:03:36.216Z,29.57
2018-08-16T03:06:12.585Z,29.56
2018-08-16T03:08:48.561Z,29.57
2018-08-16T03:11:24.650Z,29.56
2018-08-16T03:14:00.714Z,29.55
2018-08-16T03:16:37.109Z,29.55
2018-08-16T03:19:13.569Z,29.54
2018-08-16T03:21:49.481Z,29.54
2018-08-16T03:24:25.847Z,29.54
2018-08-16T03:27:02.197Z,29.53
2018-08-16T03:29:38.457Z,29.53
2018-08-16T03:32:14.676Z,29.52
2018-08-16T03:34:51.802Z,29.51
2018-08-16T03:37:27.967Z,29.51
2018-08-16T03:40:04.236Z,29.50
2018-08-16T03:42:41.402Z,29.50
2018-08-16T03:45:17.575Z,29.51
2018-08-16T03:47:51.666Z,29.50
2018-08-16T03:50:27.970Z,29.51
2018-08-16T03:53:04.278Z,29.51
2018-08-16T03:55:41.392Z,29.53
2018-08-16T03:58:17.612Z,29.58
2018-08-16T04:00:53.969Z,29.61
2018-08-16T04:03:31.275Z,29.63
2018-08-16T04:06:07.560Z,29.65
2018-08-16T04:08:44.662Z,29.68
2018-08-16T04:11:20.882Z,29.68
2018-08-16T04:14:01.589Z,29.71
2018-08-16T04:16:37.653Z,29.70
2018-08-16T04:19:14.692Z,29.73
2018-08-16T04:21:51.086Z,29.71
2018-08-16T04:24:28.215Z,29.71
2018-08-16T04:27:05.193Z,29.70
2018-08-16T04:29:41.590Z,29.69
2018-08-16T04:32:17.819Z,29.71
2018-08-16T04:34:53.988Z,29.72
2018-08-16T04:37:30.197Z,29.74
2018-08-16T04:40:06.365Z,29.77
2018-08-16T04:42:42.608Z,29.79
2018-08-16T04:45:18.596Z,29.82
2018-08-16T04:47:54.718Z,29.84
2018-08-16T04:50:30.602Z,29.85
2018-08-16T04:53:07.825Z,29.85
2018-08-16T04:55:43.831Z,29.87
2018-08-16T04:58:20.964Z,29.89
2018-08-16T05:00:58.616Z,29.90
2018-08-16T05:03:36.082Z,29.91
2018-08-16T05:06:12.626Z,29.92
2018-08-16T05:08:48.692Z,29.93
2018-08-16T05:11:25.617Z,29.93
2018-08-16T05:14:01.925Z,29.94
2018-08-16T05:16:39.286Z,29.96
2018-08-16T05:19:15.725Z,29.95
2018-08-16T05:21:52.347Z,29.97
2018-08-16T05:24:29.541Z,30.00
2018-08-16T05:27:07.344Z,30.02
2018-08-16T05:29:43.633Z,30.03
2018-08-16T05:32:20.433Z,30.07
2018-08-16T05:34:56.723Z,30.08
2018-08-16T05:37:32.749Z,30.10
2018-08-16T05:40:08.059Z,30.13
2018-08-16T05:42:45.864Z,30.12
2018-08-16T05:45:24.130Z,30.15
2018-08-16T05:48:01.450Z,30.17
2018-08-16T05:50:38.887Z,30.17
2018-08-16T05:53:16.710Z,30.20
2018-08-16T05:55:53.965Z,30.21
2018-08-16T05:58:31.291Z,30.23
2018-08-16T06:01:09.079Z,30.24
2018-08-16T06:03:45.876Z,30.25
2018-08-16T06:06:23.195Z,30.26
2018-08-16T06:09:01.009Z,30.27
2018-08-16T06:11:38.135Z,30.27
2018-08-16T06:14:15.634Z,30.29
2018-08-16T06:16:53.278Z,30.30
2018-08-16T06:19:30.885Z,30.28
2018-08-16T06:22:08.776Z,30.23
2018-08-16T06:24:46.699Z,30.15
2018-08-16T06:27:23.753Z,30.09
2018-08-16T06:30:01.019Z,30.00
2018-08-16T06:32:38.026Z,29.94
2018-08-16T06:35:15.643Z,29.87
2018-08-16T06:37:53.154Z,29.83
2018-08-16T06:40:30.181Z,29.82
2018-08-16T06:43:07.709Z,29.78
2018-08-16T06:45:45.411Z,29.76
2018-08-16T06:48:22.526Z,29.73
2018-08-16T06:50:59.952Z,29.75
2018-08-16T06:53:37.265Z,29.80
2018-08-16T06:56:14.160Z,29.81
2018-08-16T06:58:51.466Z,29.83
2018-08-16T07:01:28.794Z,29.81
2018-08-16T07:04:06.461Z,29.81
2018-08-16T07:06:42.945Z,29.81
2018-08-16T07:09:19.731Z,29.81
2018-08-16T07:11:54.712Z,29.80
2018-08-16T07:14:31.878Z,29.79
2018-08-16T07:17:08.948Z,29.78
2018-08-16T07:19:46.254Z,29.79
2018-08-16T07:22:22.924Z,29.77
2018-08-16T07:24:57.963Z,29.78
2018-08-16T07:27:35.532Z,29.77
2018-08-16T07:30:13.554Z,29.78
2018-08-16T07:32:50.456Z,29.76
2018-08-16T07:35:27.525Z,29.77
2018-08-16T07:38:04.787Z,29.76
2018-08-16T07:40:42.000Z,29.75
2018-08-16T07:43:17.450Z,29.75
2018-08-16T07:45:55.139Z,29.73
2018-08-16T07:48:33.141Z,29.73
2018-08-16T07:51:10.379Z,29.72
2018-08-16T07:53:47.420Z,29.73
2018-08-16T07:56:24.370Z,29.71
2018-08-16T07:59:01.728Z,29.71
2018-08-16T08:01:38.934Z,29.71
2018-08-16T08:04:16.548Z,29.71
2018-08-16T08:06:53.446Z,29.70
2018-08-16T08:09:30.681Z,29.69
2018-08-16T08:12:07.759Z,29.68
2018-08-16T08:14:45.308Z,29.67
2018-08-16T08:17:22.550Z,29.67
2018-08-16T08:19:59.981Z,29.67
2018-08-16T08:22:36.962Z,29.67
2018-08-16T08:25:15.595Z,29.66
2018-08-16T08:27:53.231Z,29.66
2018-08-16T08:30:30.569Z,29.66
2018-08-16T08:33:07.577Z,29.63
2018-08-16T08:35:44.103Z,29.62
2018-08-16T08:38:22.395Z,29.60
2018-08-16T08:40:58.980Z,29.60
2018-08-16T08:43:49.168Z,29.59
2018-08-16T08:46:26.407Z,29.60
2018-08-16T08:49:03.275Z,29.60
2018-08-16T08:51:39.766Z,29.60
2018-08-16T08:54:36.896Z,29.59
2018-08-16T08:57:27.356Z,29.60
2018-08-16T09:00:04.761Z,29.59
2018-08-16T09:02:41.900Z,29.56
2018-08-16T09:05:18.997Z,29.56
2018-08-16T09:07:56.585Z,29.57
2018-08-16T09:11:15.581Z,29.57
2018-08-16T09:14:09.037Z,29.56
2018-08-16T09:16:46.577Z,29.55
2018-08-16T09:19:23.992Z,29.52
2018-08-16T09:22:01.594Z,29.52
2018-08-16T09:24:38.460Z,29.52
2018-08-16T09:27:16.021Z,29.52
2018-08-16T09:30:22.228Z,29.52
2018-08-16T09:33:12.467Z,29.51
2018-08-16T09:35:49.587Z,29.52
2018-08-16T09:38:26.609Z,29.50
2018-08-16T09:41:04.068Z,29.51
2018-08-16T09:43:41.292Z,29.51
2018-08-16T09:48:04.926Z,29.49
2018-08-16T09:50:41.583Z,29.50
2018-08-16T09:53:16.327Z,29.45
2018-08-16T09:55:53.632Z,29.44
2018-08-16T09:58:31.042Z,29.44
2018-08-16T10:01:14.126Z,29.44
2018-08-16T10:03:51.982Z,29.43
2018-08-16T10:06:29.358Z,29.42
2018-08-16T10:09:07.387Z,29.41
2018-08-16T10:11:45.380Z,29.42
2018-08-16T10:14:22.823Z,29.40
2018-08-16T10:17:00.076Z,29.40
2018-08-16T10:19:37.368Z,29.40
2018-08-16T10:22:14.402Z,29.40
2018-08-16T10:24:51.713Z,29.40
2018-08-16T10:27:28.612Z,29.40
2018-08-16T10:30:05.805Z,29.39
2018-08-16T10:32:42.372Z,29.40
2018-08-16T10:35:18.930Z,29.39
2018-08-16T10:37:55.949Z,29.40
2018-08-16T10:40:32.805Z,29.39
2018-08-16T10:43:09.784Z,29.39
2018-08-16T10:45:47.353Z,29.39
2018-08-16T10:48:24.345Z,29.39
2018-08-16T10:51:01.357Z,29.39
2018-08-16T10:53:38.047Z,29.38
2018-08-16T10:56:15.351Z,29.37
2018-08-16T10:58:53.002Z,29.37
2018-08-16T11:01:27.853Z,29.36
2018-08-16T11:04:05.411Z,29.37
2018-08-16T11:06:42.343Z,29.36
2018-08-16T11:09:19.094Z,29.36
2018-08-16T11:11:54.383Z,29.35
2018-08-16T11:14:31.799Z,29.34
2018-08-16T11:17:09.276Z,29.35
2018-08-16T11:19:46.633Z,29.33
2018-08-16T11:22:23.356Z,29.33
2018-08-16T11:25:01.130Z,29.33
2018-08-16T11:27:38.284Z,29.32
2018-08-16T11:31:21.624Z,29.31
2018-08-16T11:33:58.403Z,29.31
2018-08-16T11:36:35.487Z,29.30
2018-08-16T11:39:13.103Z,29.31
2018-08-16T11:41:50.627Z,29.27
2018-08-16T11:44:27.743Z,29.26
2018-08-16T11:47:04.830Z,29.25
2018-08-16T11:49:41.679Z,29.27
2018-08-16T11:52:16.542Z,29.26
2018-08-16T11:54:54.847Z,29.26
2018-08-16T11:57:31.484Z,29.27
2018-08-16T12:00:09.060Z,29.27
2018-08-16T12:02:45.631Z,29.26
2018-08-16T12:05:22.865Z,29.26
2018-08-16T12:07:59.433Z,29.22
2018-08-16T12:10:37.050Z,29.26
2018-08-16T12:13:13.643Z,29.25
2018-08-16T12:15:50.294Z,29.24
2018-08-16T12:18:27.848Z,29.24
2018-08-16T12:21:04.730Z,29.23
2018-08-16T12:23:41.867Z,29.22
2018-08-16T12:26:19.299Z,29.23
2018-08-16T12:28:56.525Z,29.21
2018-08-16T12:31:33.905Z,29.19
2018-08-16T12:34:10.638Z,29.19
2018-08-16T12:36:47.652Z,29.19
2018-08-16T12:39:24.703Z,29.20
2018-08-16T12:42:01.149Z,29.20
2018-08-16T12:44:38.170Z,29.19
2018-08-16T12:47:14.784Z,29.19
2018-08-16T12:49:51.838Z,29.18
2018-08-16T12:52:29.871Z,29.17
2018-08-16T12:55:07.332Z,29.17
2018-08-16T12:57:44.337Z,29.17
2018-08-16T13:00:21.922Z,29.14
2018-08-16T13:02:58.980Z,29.15
2018-08-16T13:05:36.362Z,29.14
2018-08-16T13:08:14.347Z,29.15
2018-08-16T13:10:50.891Z,29.14
2018-08-16T13:13:28.410Z,29.14
2018-08-16T13:16:05.701Z,29.15
2018-08-16T13:18:42.327Z,29.13
2018-08-16T13:21:19.651Z,29.13
2018-08-16T13:23:57.072Z,29.13
2018-08-16T13:26:34.543Z,29.13
2018-08-16T13:29:11.879Z,29.12
2018-08-16T13:31:48.464Z,29.10
2018-08-16T13:34:25.306Z,29.11
2018-08-16T13:37:02.596Z,29.12
2018-08-16T13:39:40.029Z,29.12
2018-08-16T13:42:17.573Z,29.11
2018-08-16T13:44:54.577Z,29.11
2018-08-16T13:47:31.305Z,29.11
2018-08-16T13:50:07.931Z,29.11
2018-08-16T13:52:43.354Z,29.10
2018-08-16T13:55:20.707Z,29.10
2018-08-16T13:57:57.918Z,29.08
2018-08-16T14:00:35.074Z,29.08
2018-08-16T14:03:11.531Z,29.07
2018-08-16T14:05:48.817Z,29.07
2018-08-16T14:08:25.827Z,29.06
2018-08-16T14:11:02.500Z,29.06
2018-08-16T14:13:39.745Z,29.06
2018-08-16T14:16:17.073Z,29.06
2018-08-16T14:18:54.365Z,29.04
2018-08-16T14:21:31.674Z,29.03
2018-08-16T14:24:08.457Z,29.04
2018-08-16T14:26:45.782Z,29.06
2018-08-16T14:29:23.828Z,29.05
2018-08-16T14:32:01.452Z,29.05
2018-08-16T14:34:38.533Z,29.05
2018-08-16T14:37:15.091Z,29.06
2018-08-16T14:39:52.307Z,29.04
2018-08-16T14:42:30.243Z,29.04
2018-08-16T14:45:07.300Z,29.02
2018-08-16T14:47:44.869Z,29.02
2018-08-16T14:50:22.499Z,29.00
2018-08-16T14:52:59.840Z,29.00
2018-08-16T14:55:36.790Z,28.99
2018-08-16T14:58:14.901Z,28.99
2018-08-16T15:00:51.428Z,28.99
2018-08-16T15:03:28.813Z,29.00
2018-08-16T15:06:05.779Z,28.99
2018-08-16T15:08:42.608Z,29.01
2018-08-16T15:11:20.430Z,29.01
2018-08-16T15:13:57.283Z,29.01
2018-08-16T15:16:35.236Z,29.01
2018-08-16T15:19:12.014Z,29.02
2018-08-16T15:21:49.084Z,29.02
2018-08-16T15:24:26.871Z,29.02
2018-08-16T15:27:04.000Z,29.03
2018-08-16T15:30:47.302Z,29.00
2018-08-16T15:33:23.848Z,29.01
2018-08-16T15:36:01.143Z,29.03
2018-08-16T15:38:38.346Z,29.04
2018-08-16T15:41:16.229Z,29.03
2018-08-16T15:43:52.889Z,29.04
2018-08-16T15:46:30.388Z,29.03
2018-08-16T15:49:08.768Z,29.04
2018-08-16T15:51:45.879Z,29.08
2018-08-16T15:54:23.305Z,29.08
2018-08-16T15:57:00.614Z,29.11
2018-08-16T15:59:38.236Z,29.12
2018-08-16T16:02:15.347Z,29.13
2018-08-16T16:04:52.342Z,29.13
2018-08-16T16:07:29.763Z,29.14
2018-08-16T16:10:07.291Z,29.16
2018-08-16T16:12:43.882Z,29.17
2018-08-16T16:15:21.237Z,29.16
2018-08-16T16:17:58.426Z,29.16
2018-08-16T16:20:35.582Z,29.16
2018-08-16T16:23:13.524Z,29.18
2018-08-16T16:25:51.119Z,29.18
2018-08-16T16:28:28.411Z,29.18
2018-08-16T16:31:05.728Z,29.18
2018-08-16T16:33:43.352Z,29.15
2018-08-16T16:36:21.145Z,29.16
2018-08-16T16:38:58.437Z,29.22
2018-08-16T16:41:35.592Z,29.22
2018-08-16T16:44:13.473Z,29.22
2018-08-16T16:46:50.320Z,29.23
2018-08-16T16:49:27.521Z,29.23
2018-08-16T16:52:04.859Z,29.22
2018-08-16T16:54:43.117Z,29.23
2018-08-16T16:57:20.473Z,29.23
2018-08-16T16:59:58.490Z,29.24
2018-08-16T17:02:35.532Z,29.23
2018-08-16T17:05:12.631Z,29.24
2018-08-16T17:07:50.116Z,29.24
2018-08-16T17:10:27.663Z,29.25
2018-08-16T17:13:05.139Z,29.26
2018-08-16T17:15:42.423Z,29.25
2018-08-16T17:18:19.379Z,29.26
2018-08-16T17:20:57.157Z,29.25
2018-08-16T17:23:34.571Z,29.26
2018-08-16T17:26:11.863Z,29.27
2018-08-16T17:28:49.418Z,29.25
2018-08-16T17:31:26.264Z,29.27
2018-08-16T17:34:02.879Z,29.26
2018-08-16T17:36:40.413Z,29.28
2018-08-16T17:39:18.171Z,29.29
2018-08-16T17:41:55.067Z,29.30
2018-08-16T17:44:32.128Z,29.27
2018-08-16T17:47:10.383Z,29.29
2018-08-16T17:49:47.374Z,29.29
2018-08-16T17:52:23.627Z,29.31
2018-08-16T17:55:01.100Z,29.30
2018-08-16T17:57:38.138Z,29.31
2018-08-16T18:00:15.562Z,29.31
2018-08-16T18:02:53.170Z,29.31
2018-08-16T18:05:30.437Z,29.31
2018-08-16T18:08:07.691Z,29.33
2018-08-16T18:10:46.366Z,29.34
2018-08-16T18:13:23.868Z,29.33
2018-08-16T18:16:01.393Z,29.36
2018-08-16T18:18:38.500Z,29.35
2018-08-16T18:21:16.344Z,29.36
2018-08-16T18:23:53.926Z,29.37
2018-08-16T18:26:31.176Z,29.37
2018-08-16T18:29:08.201Z,29.38
2018-08-16T18:31:45.856Z,29.38
2018-08-16T18:34:23.371Z,29.38
2018-08-16T18:37:00.662Z,29.38
2018-08-16T18:39:37.996Z,29.39
2018-08-16T18:42:15.291Z,29.39
2018-08-16T18:44:53.327Z,29.39
2018-08-16T18:47:30.450Z,29.40
2018-08-16T18:50:07.584Z,29.39
2018-08-16T18:52:45.395Z,29.40
2018-08-16T18:55:22.938Z,29.40
2018-08-16T18:58:00.355Z,29.40
2018-08-16T19:00:37.582Z,29.40
2018-08-16T19:03:15.102Z,29.41
2018-08-16T19:05:52.050Z,29.42
2018-08-16T19:08:29.574Z,29.42
2018-08-16T19:11:06.808Z,29.43
2018-08-16T19:13:43.649Z,29.44
2018-08-16T19:16:21.151Z,29.45
2018-08-16T19:18:58.386Z,29.46
2018-08-16T19:21:36.168Z,29.42
2018-08-16T19:24:13.090Z,29.47
2018-08-16T19:26:50.585Z,29.47
2018-08-16T19:29:27.959Z,29.49
2018-08-16T19:32:06.195Z,29.48
2018-08-16T19:34:43.418Z,29.48
2018-08-16T19:37:20.314Z,29.49
2018-08-16T19:39:57.092Z,29.48
2018-08-16T19:42:34.685Z,29.50
2018-08-16T19:45:11.650Z,29.51
2018-08-16T19:47:49.200Z,29.51
2018-08-16T19:50:26.218Z,29.51
2018-08-16T19:53:03.138Z,29.51
2018-08-16T19:55:40.429Z,29.52
2018-08-16T19:58:17.513Z,29.53
2018-08-16T20:00:54.400Z,29.52
2018-08-16T20:03:32.218Z,29.54
2018-08-16T20:06:09.653Z,29.53
2018-08-16T20:08:47.536Z,29.54
2018-08-16T20:11:23.923Z,29.55
2018-08-16T20:14:01.708Z,29.55
2018-08-16T20:16:39.215Z,29.56
2018-08-16T20:19:15.966Z,29.58
2018-08-16T20:21:53.235Z,29.58
2018-08-16T20:24:30.209Z,29.59
2018-08-16T20:27:07.570Z,29.59
2018-08-16T20:29:45.048Z,29.60
2018-08-16T20:32:22.443Z,29.61
2018-08-16T20:34:59.893Z,29.62
2018-08-16T20:37:37.714Z,29.62
2018-08-16T20:40:15.405Z,29.63
2018-08-16T20:42:52.623Z,29.62
2018-08-16T20:45:30.423Z,29.63
2018-08-16T20:48:07.204Z,29.64
2018-08-16T20:50:45.574Z,29.64
2018-08-16T20:53:22.654Z,29.65
2018-08-16T20:56:00.207Z,29.66
2018-08-16T20:58:37.215Z,29.67
2018-08-16T21:01:14.127Z,29.69
2018-08-16T21:03:50.992Z,29.70
2018-08-16T21:06:27.351Z,29.70
2018-08-16T21:09:04.226Z,29.71
2018-08-16T21:11:42.211Z,29.72
2018-08-16T21:14:19.655Z,29.73
2018-08-16T21:16:57.082Z,29.74
2018-08-16T21:19:35.222Z,29.74
2018-08-16T21:22:11.878Z,29.74
2018-08-16T21:24:49.384Z,29.74
2018-08-16T21:27:26.232Z,29.75
2018-08-16T21:30:03.355Z,29.76
2018-08-16T21:32:40.479Z,29.77
2018-08-16T21:35:18.139Z,29.77
2018-08-16T21:37:55.573Z,29.77
2018-08-16T21:40:32.265Z,29.78
2018-08-16T21:43:09.598Z,29.78
2018-08-16T21:45:46.889Z,29.79
2018-08-16T21:48:23.264Z,29.80
2018-08-16T21:51:00.900Z,29.80
2018-08-16T21:53:37.834Z,29.82
2018-08-16T21:56:15.013Z,29.82
2018-08-16T21:58:52.237Z,29.83
2018-08-16T22:01:28.463Z,29.84
2018-08-16T22:04:06.599Z,29.83
2018-08-16T22:06:56.820Z,29.85
2018-08-16T22:09:33.639Z,29.86
2018-08-16T22:12:10.603Z,29.87
2018-08-16T22:14:47.371Z,29.86
2018-08-16T22:17:24.282Z,29.86
2018-08-16T22:20:01.470Z,29.86
2018-08-16T22:22:38.367Z,29.87
2018-08-16T22:25:15.446Z,29.87
2018-08-16T22:27:52.495Z,29.87
2018-08-16T22:30:29.717Z,29.88
2018-08-16T22:33:07.129Z,29.89
2018-08-16T22:35:43.840Z,29.89
2018-08-16T22:38:20.905Z,29.89
2018-08-16T22:40:58.455Z,29.90
2018-08-16T22:43:34.280Z,29.89
2018-08-16T22:46:10.124Z,29.89
2018-08-16T22:48:46.153Z,29.90
2018-08-16T22:51:22.172Z,29.90
2018-08-16T22:53:58.176Z,29.91
2018-08-16T22:56:34.228Z,29.89
2018-08-16T22:59:10.118Z,29.90
2018-08-16T23:01:46.157Z,29.92
2018-08-16T23:04:22.023Z,29.91
2018-08-16T23:06:58.176Z,29.92
2018-08-16T23:09:34.067Z,29.94
2018-08-16T23:12:10.067Z,29.94
2018-08-16T23:14:46.266Z,29.94
2018-08-16T23:17:22.056Z,29.96
2018-08-16T23:19:58.111Z,29.97
2018-08-16T23:22:34.109Z,29.97
2018-08-16T23:25:10.696Z,29.99
2018-08-16T23:27:46.627Z,29.98
2018-08-16T23:30:20.408Z,29.99
2018-08-16T23:32:56.283Z,29.99
2018-08-16T23:35:32.159Z,30.01
2018-08-16T23:38:08.251Z,30.02
2018-08-16T23:40:43.804Z,30.01
2018-08-16T23:43:20.283Z,30.03
2018-08-16T23:45:56.238Z,30.04
2018-08-16T23:48:35.139Z,30.04
2018-08-16T23:51:11.116Z,30.07
2018-08-16T23:53:47.257Z,30.07
2018-08-16T23:56:23.281Z,30.08
2018-08-16T23:58:59.284Z,30.08
